createdAt,value
2023-10-06T00:00:35.307Z,91.46
2023-10-06T00:03:07.521Z,90.91
2023-10-06T00:05:35.104Z,90.84
2023-10-06T00:08:06.317Z,90.67
2023-10-06T00:10:33.512Z,90.71
2023-10-06T00:13:00.717Z,91.32
2023-10-06T00:15:39.810Z,91.05
2023-10-06T00:18:13.840Z,90.86
2023-10-06T00:20:40.899Z,90.36
2023-10-06T00:23:16.072Z,91.93
2023-10-06T00:25:44.429Z,92.38
2023-10-06T00:28:21.377Z,92.39
2023-10-06T00:30:49.824Z,92.24
2023-10-06T00:33:17.088Z,92.21
2023-10-06T00:35:45.586Z,93.00
2023-10-06T00:38:19.124Z,92.94
2023-10-06T00:40:57.575Z,93.41
2023-10-06T00:43:36.507Z,93.71
2023-10-06T00:46:08.892Z,93.77
2023-10-06T00:48:41.026Z,93.99
2023-10-06T00:51:23.592Z,93.64
2023-10-06T00:53:54.244Z,94.74
2023-10-06T00:56:25.021Z,94.94
2023-10-06T00:58:53.640Z,94.61
2023-10-06T01:01:21.269Z,94.10
2023-10-06T01:04:02.445Z,93.71
2023-10-06T01:06:40.476Z,93.68
2023-10-06T01:09:13.080Z,94.03
2023-10-06T01:11:47.584Z,95.26
2023-10-06T01:14:23.379Z,95.64
2023-10-06T01:16:52.311Z,95.51
2023-10-06T01:19:25.350Z,95.30
2023-10-06T01:21:55.319Z,94.42
2023-10-06T01:24:30.000Z,94.70
2023-10-06T01:27:01.859Z,94.62
2023-10-06T01:29:32.363Z,94.58
2023-10-06T01:32:06.272Z,94.33
2023-10-06T01:34:40.435Z,93.48
2023-10-06T01:37:11.752Z,93.87
2023-10-06T01:39:39.885Z,94.05
2023-10-06T01:42:09.343Z,93.95
2023-10-06T01:44:36.554Z,93.42
2023-10-06T01:47:07.010Z,93.89
2023-10-06T01:49:38.017Z,93.49
2023-10-06T01:52:10.008Z,93.71
2023-10-06T01:54:37.350Z,94.04
2023-10-06T01:57:12.620Z,94.45
2023-10-06T01:59:39.557Z,94.06
2023-10-06T02:02:14.835Z,94.59
2023-10-06T02:04:46.967Z,94.18
2023-10-06T02:07:14.542Z,93.86
2023-10-06T02:09:41.785Z,93.74
2023-10-06T02:12:09.762Z,93.02
2023-10-06T02:14:37.359Z,92.77
2023-10-06T02:17:07.879Z,92.55
2023-10-06T02:19:35.731Z,92.63
2023-10-06T02:22:04.853Z,93.09
2023-10-06T02:24:31.787Z,92.99
2023-10-06T02:26:59.806Z,93.43
2023-10-06T02:29:28.222Z,93.84
2023-10-06T02:32:02.723Z,93.27
2023-10-06T02:34:36.977Z,93.42
2023-10-06T02:37:05.803Z,93.54
2023-10-06T02:39:35.742Z,92.96
2023-10-06T02:42:09.123Z,92.86
2023-10-06T02:44:40.666Z,93.41
2023-10-06T02:47:11.636Z,94.06
2023-10-06T02:49:42.681Z,94.62
2023-10-06T02:52:31.168Z,94.90
2023-10-06T02:55:06.057Z,95.04
2023-10-06T02:57:37.117Z,94.29
2023-10-06T03:00:38.655Z,93.69
2023-10-06T03:03:13.797Z,94.21
2023-10-06T03:05:41.436Z,93.53
2023-10-06T03:08:11.315Z,94.05
2023-10-06T03:10:44.596Z,94.31
2023-10-06T03:13:44.720Z,94.02
2023-10-06T03:16:13.015Z,94.34
2023-10-06T03:18:41.207Z,94.48
2023-10-06T03:21:17.213Z,95.67
2023-10-06T03:23:48.822Z,95.54
2023-10-06T03:26:35.201Z,95.26
2023-10-06T03:29:12.818Z,95.49
2023-10-06T03:31:46.551Z,94.98
2023-10-06T03:34:21.662Z,95.43
2023-10-06T03:36:53.442Z,94.87
2023-10-06T03:39:32.352Z,94.91
2023-10-06T03:42:09.692Z,94.88
2023-10-06T03:44:36.650Z,95.18
2023-10-06T03:47:09.163Z,95.33
2023-10-06T03:49:36.746Z,95.62
2023-10-06T03:52:11.228Z,95.63
2023-10-06T03:54:38.668Z,95.63
2023-10-06T03:59:16.998Z,96.02
2023-10-06T04:01:47.784Z,96.17
2023-10-06T04:04:23.811Z,96.34
2023-10-06T04:06:51.531Z,96.57
2023-10-06T04:09:29.452Z,97.29
2023-10-06T04:12:02.820Z,97.78
2023-10-06T04:14:33.197Z,97.23
2023-10-06T04:17:02.707Z,96.54
2023-10-06T04:19:30.517Z,96.09
2023-10-06T04:21:57.511Z,95.87
2023-10-06T04:24:24.566Z,95.61
2023-10-06T04:26:51.522Z,95.04
2023-10-06T04:29:20.164Z,95.35
2023-10-06T04:31:47.631Z,95.29
2023-10-06T04:34:15.466Z,95.10
2023-10-06T04:36:44.236Z,95.52
2023-10-06T04:39:17.866Z,95.25
2023-10-06T04:41:44.966Z,95.48
2023-10-06T04:44:11.931Z,95.12
2023-10-06T04:46:39.055Z,94.94
2023-10-06T04:49:07.163Z,94.63
2023-10-06T04:51:35.679Z,94.75
2023-10-06T04:54:04.194Z,94.42
2023-10-06T04:56:33.963Z,94.39
2023-10-06T04:59:01.584Z,94.75
2023-10-06T05:01:32.332Z,95.28
2023-10-06T05:03:59.527Z,94.78
2023-10-06T05:06:26.996Z,94.82
2023-10-06T05:08:53.961Z,95.78
2023-10-06T05:11:22.051Z,95.47
2023-10-06T05:13:51.289Z,95.72
2023-10-06T05:16:20.533Z,95.54
2023-10-06T05:18:49.088Z,95.45
2023-10-06T05:21:16.917Z,96.30
2023-10-06T05:23:46.723Z,96.70
2023-10-06T05:26:16.777Z,96.58
2023-10-06T05:28:45.014Z,95.96
2023-10-06T05:31:13.361Z,96.97
2023-10-06T05:33:42.450Z,97.21
2023-10-06T05:36:16.705Z,97.21
2023-10-06T05:38:46.986Z,98.12
2023-10-06T05:41:14.709Z,97.73
2023-10-06T05:43:42.763Z,97.94
2023-10-06T05:46:11.142Z,98.04
2023-10-06T05:48:40.036Z,98.66
2023-10-06T05:51:10.878Z,98.62
2023-10-06T05:53:45.412Z,98.88
2023-10-06T05:56:13.458Z,99.00
2023-10-06T05:58:42.761Z,99.69
2023-10-06T06:01:19.818Z,99.66
2023-10-06T06:03:48.172Z,99.78
2023-10-06T06:06:17.483Z,99.69
2023-10-06T06:08:49.258Z,99.90
2023-10-06T06:11:18.375Z,99.87
2023-10-06T06:13:52.782Z,100.00
2023-10-06T06:16:23.032Z,100.00
2023-10-06T06:18:50.252Z,99.76
2023-10-06T06:21:17.873Z,100.00
2023-10-06T06:23:47.771Z,100.00
2023-10-06T06:26:18.540Z,100.00
2023-10-06T06:28:45.990Z,100.00
2023-10-06T06:31:20.058Z,100.00
2023-10-06T06:33:58.624Z,100.00
2023-10-06T06:36:27.960Z,100.00
2023-10-06T06:38:55.708Z,100.00
2023-10-06T06:41:23.075Z,100.00
2023-10-06T06:43:50.402Z,99.60
2023-10-06T06:46:18.521Z,98.67
2023-10-06T06:48:47.375Z,99.07
2023-10-06T06:51:14.484Z,99.53
2023-10-06T06:53:41.409Z,100.00
2023-10-06T06:56:12.261Z,100.00
2023-10-06T06:58:39.851Z,100.00
2023-10-06T07:01:16.252Z,100.00
2023-10-06T07:03:43.751Z,99.89
2023-10-06T07:06:18.153Z,100.00
2023-10-06T07:08:48.141Z,100.00
2023-10-06T07:11:17.248Z,100.00
2023-10-06T07:13:46.957Z,100.00
2023-10-06T07:16:16.061Z,100.00
2023-10-06T07:18:43.282Z,100.00
2023-10-06T07:21:11.590Z,100.00
2023-10-06T07:23:41.249Z,100.00
2023-10-06T07:26:12.612Z,100.00
2023-10-06T07:28:41.355Z,100.00
2023-10-06T07:31:15.042Z,100.00
2023-10-06T07:33:45.652Z,100.00
2023-10-06T07:36:19.509Z,100.00
2023-10-06T07:38:47.715Z,100.00
2023-10-06T07:41:24.978Z,100.00
2023-10-06T07:43:53.653Z,100.00
2023-10-06T07:46:20.792Z,100.00
2023-10-06T07:48:48.306Z,100.00
2023-10-06T07:51:15.462Z,100.00
2023-10-06T07:53:42.577Z,100.00
2023-10-06T07:56:10.171Z,100.00
2023-10-06T07:58:45.130Z,100.00
2023-10-06T08:01:14.822Z,100.00
2023-10-06T08:03:46.914Z,100.00
2023-10-06T08:06:15.345Z,100.00
2023-10-06T08:08:42.650Z,100.00
2023-10-06T08:11:10.761Z,100.00
2023-10-06T08:13:39.527Z,100.00
2023-10-06T08:16:09.854Z,100.00
2023-10-06T08:18:37.076Z,100.00
2023-10-06T08:21:04.823Z,100.00
2023-10-06T08:23:33.071Z,100.00
2023-10-06T08:26:02.661Z,100.00
2023-10-06T08:28:33.159Z,100.00
2023-10-06T08:31:04.725Z,100.00
2023-10-06T08:33:33.181Z,100.00
2023-10-06T08:36:03.568Z,100.00
2023-10-06T08:38:31.848Z,100.00
2023-10-06T08:41:04.891Z,100.00
2023-10-06T08:43:33.996Z,99.97
2023-10-06T08:46:02.085Z,98.92
2023-10-06T08:48:33.963Z,97.75
2023-10-06T08:51:05.137Z,96.86
2023-10-06T08:53:33.490Z,98.49
2023-10-06T08:56:00.542Z,97.60
2023-10-06T08:58:28.291Z,95.82
2023-10-06T09:00:57.319Z,94.02
2023-10-06T09:03:27.564Z,92.25
2023-10-06T09:05:55.295Z,91.95
2023-10-06T09:08:22.574Z,90.42
2023-10-06T09:10:52.349Z,90.24
2023-10-06T09:13:22.143Z,88.76
2023-10-06T09:16:09.953Z,86.96
2023-10-06T09:21:27.485Z,87.15
2023-10-06T09:23:55.794Z,86.60
2023-10-06T09:26:33.008Z,84.11
2023-10-06T09:29:03.540Z,84.12
2023-10-06T09:31:46.551Z,82.31
2023-10-06T09:34:25.256Z,81.29
2023-10-06T09:36:53.072Z,80.38
2023-10-06T09:39:39.094Z,80.03
2023-10-06T09:42:11.328Z,79.20
2023-10-06T09:44:40.996Z,79.55
2023-10-06T09:47:10.093Z,78.69
2023-10-06T09:49:38.858Z,77.62
2023-10-06T09:52:07.155Z,76.51
2023-10-06T09:54:36.472Z,76.01
2023-10-06T09:57:04.707Z,75.17
2023-10-06T09:59:34.415Z,74.56
2023-10-06T10:02:06.703Z,74.46
2023-10-06T10:04:34.738Z,73.64
2023-10-06T10:07:03.659Z,72.97
2023-10-06T10:09:36.572Z,73.54
2023-10-06T10:12:18.906Z,71.48
2023-10-06T10:15:13.473Z,70.53
2023-10-06T10:18:01.583Z,69.93
2023-10-06T10:20:28.973Z,69.30
2023-10-06T10:23:00.597Z,69.38
2023-10-06T10:25:31.764Z,68.85
2023-10-06T10:28:20.713Z,68.59
2023-10-06T10:31:03.031Z,68.98
2023-10-06T10:33:38.603Z,68.66
2023-10-06T10:36:15.949Z,67.26
2023-10-06T10:38:43.908Z,66.93
2023-10-06T10:41:12.525Z,66.68
2023-10-06T10:43:42.741Z,66.40
2023-10-06T10:46:10.359Z,66.22
2023-10-06T10:48:49.091Z,65.37
2023-10-06T10:51:16.672Z,64.80
2023-10-06T10:53:46.820Z,63.72
2023-10-06T10:56:29.088Z,63.55
2023-10-06T10:58:56.806Z,62.69
2023-10-06T11:01:37.649Z,62.48
2023-10-06T11:04:22.847Z,62.30
2023-10-06T11:06:51.504Z,61.60
2023-10-06T11:09:41.269Z,60.50
2023-10-06T11:12:24.382Z,59.76
2023-10-06T11:15:04.100Z,59.59
2023-10-06T11:17:33.526Z,58.73
2023-10-06T11:20:24.082Z,58.77
2023-10-06T11:23:03.008Z,58.54
2023-10-06T11:25:34.448Z,57.87
2023-10-06T11:28:06.260Z,55.92
2023-10-06T11:30:35.538Z,56.19
2023-10-06T11:33:05.280Z,56.27
2023-10-06T11:35:34.623Z,56.33
2023-10-06T11:38:04.858Z,56.00
2023-10-06T11:40:34.077Z,55.27
2023-10-06T11:43:15.935Z,54.35
2023-10-06T11:45:44.217Z,53.64
2023-10-06T11:48:31.189Z,53.47
2023-10-06T11:51:08.665Z,52.97
2023-10-06T11:53:38.577Z,52.67
2023-10-06T11:56:15.218Z,52.05
2023-10-06T11:58:43.991Z,52.10
2023-10-06T12:01:34.525Z,52.03
2023-10-06T12:04:02.393Z,50.34
2023-10-06T12:06:42.462Z,50.50
2023-10-06T12:09:14.366Z,50.20
2023-10-06T12:11:42.076Z,49.28
2023-10-06T12:14:09.367Z,49.62
2023-10-06T12:16:37.859Z,49.38
2023-10-06T12:19:05.079Z,48.98
2023-10-06T12:21:32.125Z,48.86
2023-10-06T12:23:59.705Z,48.55
2023-10-06T12:26:26.725Z,47.38
2023-10-06T12:28:55.931Z,46.32
2023-10-06T12:31:23.758Z,46.17
2023-10-06T12:33:57.168Z,45.91
2023-10-06T12:36:25.335Z,47.09
2023-10-06T12:38:52.646Z,46.64
2023-10-06T12:41:19.786Z,46.14
2023-10-06T12:43:49.256Z,46.35
2023-10-06T12:46:17.259Z,45.77
2023-10-06T12:48:44.325Z,45.40
2023-10-06T12:51:14.478Z,44.95
2023-10-06T12:53:42.462Z,45.58
2023-10-06T12:56:11.152Z,45.16
2023-10-06T12:58:39.298Z,44.58
2023-10-06T13:01:09.865Z,44.35
2023-10-06T13:03:38.142Z,44.29
2023-10-06T13:06:06.298Z,43.73
2023-10-06T13:08:34.550Z,42.94
2023-10-06T13:11:05.230Z,42.97
2023-10-06T13:13:35.307Z,42.78
2023-10-06T13:16:10.153Z,42.20
2023-10-06T13:18:40.045Z,41.84
2023-10-06T13:21:09.810Z,42.18
2023-10-06T13:23:38.199Z,42.28
2023-10-06T13:26:06.267Z,41.69
2023-10-06T13:28:33.696Z,41.86
2023-10-06T13:31:00.787Z,41.76
2023-10-06T13:33:27.915Z,41.13
2023-10-06T13:35:55.088Z,41.60
2023-10-06T13:38:23.002Z,41.61
2023-10-06T13:40:49.988Z,41.78
2023-10-06T13:43:16.994Z,42.00
2023-10-06T13:45:46.986Z,42.15
2023-10-06T13:48:17.474Z,41.53
2023-10-06T13:50:44.873Z,40.83
2023-10-06T13:53:11.866Z,40.67
2023-10-06T13:55:39.056Z,40.46
2023-10-06T13:58:06.403Z,40.64
2023-10-06T14:00:34.097Z,40.52
2023-10-06T14:03:03.025Z,41.08
2023-10-06T14:05:33.873Z,41.00
2023-10-06T14:08:05.757Z,41.09
2023-10-06T14:10:37.372Z,40.69
2023-10-06T14:13:10.038Z,40.22
2023-10-06T14:15:46.643Z,40.12
2023-10-06T14:18:15.660Z,40.17
2023-10-06T14:20:46.695Z,40.23
2023-10-06T14:23:15.963Z,40.02
2023-10-06T14:25:44.209Z,39.97
2023-10-06T14:28:11.932Z,39.99
2023-10-06T14:30:44.150Z,40.04
2023-10-06T14:33:24.048Z,39.57
2023-10-06T14:36:01.064Z,39.25
2023-10-06T14:38:34.339Z,39.65
2023-10-06T14:41:16.450Z,39.60
2023-10-06T14:44:06.420Z,39.40
2023-10-06T14:46:34.883Z,39.53
2023-10-06T14:49:08.721Z,39.98
2023-10-06T14:51:36.215Z,39.92
2023-10-06T14:54:05.308Z,40.04
2023-10-06T14:56:32.916Z,40.09
2023-10-06T14:59:00.074Z,40.18
2023-10-06T15:01:32.358Z,40.53
2023-10-06T15:04:03.198Z,41.84
2023-10-06T15:06:34.742Z,41.64
2023-10-06T15:09:01.892Z,42.46
2023-10-06T15:11:29.729Z,43.05
2023-10-06T15:13:57.476Z,43.29
2023-10-06T15:16:24.698Z,43.79
2023-10-06T15:18:51.978Z,44.25
2023-10-06T15:21:25.021Z,44.53
2023-10-06T15:23:54.549Z,45.77
2023-10-06T15:26:24.797Z,46.23
2023-10-06T15:28:51.823Z,46.94
2023-10-06T15:31:18.878Z,47.28
2023-10-06T15:33:45.962Z,47.46
2023-10-06T15:36:18.362Z,48.12
2023-10-06T15:38:48.330Z,48.07
2023-10-06T15:41:17.297Z,48.88
2023-10-06T15:43:49.263Z,49.34
2023-10-06T15:46:21.273Z,50.19
2023-10-06T15:48:48.284Z,50.94
2023-10-06T15:51:20.061Z,51.30
2023-10-06T15:53:47.082Z,52.17
2023-10-06T15:56:15.846Z,53.25
2023-10-06T15:58:51.426Z,52.84
2023-10-06T16:01:19.514Z,53.79
2023-10-06T16:03:48.848Z,55.07
2023-10-06T16:06:16.728Z,56.07
2023-10-06T16:08:45.115Z,56.59
2023-10-06T16:11:12.588Z,57.17
2023-10-06T16:13:43.465Z,58.07
2023-10-06T16:16:17.878Z,58.80
2023-10-06T16:18:47.965Z,59.60
2023-10-06T16:21:17.244Z,59.56
2023-10-06T16:23:48.452Z,59.83
2023-10-06T16:26:16.158Z,60.40
2023-10-06T16:28:44.725Z,60.78
2023-10-06T16:31:12.315Z,61.72
2023-10-06T16:33:39.429Z,62.43
2023-10-06T16:36:07.806Z,62.51
2023-10-06T16:38:35.063Z,62.66
2023-10-06T16:41:02.889Z,63.90
2023-10-06T16:43:36.172Z,64.54
2023-10-06T16:46:04.138Z,65.22
2023-10-06T16:48:31.267Z,65.76
2023-10-06T16:50:58.596Z,66.40
2023-10-06T16:53:25.758Z,66.67
2023-10-06T16:55:59.744Z,67.17
2023-10-06T16:58:28.225Z,67.96
2023-10-06T17:00:58.264Z,68.15
2023-10-06T17:03:28.208Z,68.79
2023-10-06T17:05:56.588Z,68.52
2023-10-06T17:08:23.605Z,70.89
2023-10-06T17:10:50.984Z,70.38
2023-10-06T17:13:23.963Z,70.31
2023-10-06T17:15:51.380Z,69.97
2023-10-06T17:18:18.474Z,71.08
2023-10-06T17:20:46.042Z,70.43
2023-10-06T17:23:13.170Z,70.44
2023-10-06T17:25:40.837Z,70.94
2023-10-06T17:28:08.929Z,72.32
2023-10-06T17:30:37.667Z,73.47
2023-10-06T17:33:08.573Z,73.66
2023-10-06T17:35:36.289Z,73.33
2023-10-06T17:38:03.487Z,74.18
2023-10-06T17:40:31.164Z,75.63
2023-10-06T17:42:58.133Z,75.77
2023-10-06T17:45:26.406Z,75.24
2023-10-06T17:47:56.608Z,75.44
2023-10-06T17:50:24.153Z,75.99
2023-10-06T17:52:51.280Z,76.39
2023-10-06T17:55:18.686Z,76.98
2023-10-06T17:57:47.575Z,77.86
2023-10-06T18:00:17.596Z,77.30
2023-10-06T18:02:45.055Z,77.54
2023-10-06T18:05:12.244Z,77.58
2023-10-06T18:07:39.760Z,77.45
2023-10-06T18:10:09.870Z,77.58
2023-10-06T18:12:38.391Z,78.56
2023-10-06T18:15:07.121Z,79.80
2023-10-06T18:17:36.795Z,81.36
2023-10-06T18:20:04.944Z,80.98
2023-10-06T18:22:32.129Z,80.57
2023-10-06T18:24:59.140Z,80.19
2023-10-06T18:27:26.171Z,80.42
2023-10-06T18:29:53.162Z,80.38
2023-10-06T18:32:21.617Z,80.81
2023-10-06T18:34:48.756Z,82.05
2023-10-06T18:37:15.933Z,82.49
2023-10-06T18:39:47.805Z,82.08
2023-10-06T18:42:15.008Z,82.28
2023-10-06T18:44:42.004Z,82.13
2023-10-06T18:47:09.038Z,82.36
2023-10-06T18:49:36.111Z,82.63
2023-10-06T18:52:03.146Z,82.94
2023-10-06T18:54:30.934Z,83.56
2023-10-06T18:56:57.988Z,84.62
2023-10-06T18:59:25.003Z,84.07
2023-10-06T19:01:52.027Z,83.67
2023-10-06T19:04:19.329Z,84.78
2023-10-06T19:06:46.338Z,84.52
2023-10-06T19:09:16.572Z,84.45
2023-10-06T19:11:43.910Z,84.48
2023-10-06T19:14:11.762Z,85.18
2023-10-06T19:16:38.941Z,85.32
2023-10-06T19:19:06.088Z,85.13
2023-10-06T19:21:33.070Z,84.68
2023-10-06T19:24:02.827Z,84.67
2023-10-06T19:26:29.805Z,84.89
2023-10-06T19:28:58.246Z,84.89
2023-10-06T19:31:25.368Z,84.46
2023-10-06T19:33:53.069Z,84.48
2023-10-06T19:36:23.436Z,84.58
2023-10-06T19:38:52.057Z,84.87
2023-10-06T19:41:19.716Z,85.19
2023-10-06T19:43:46.829Z,85.19
2023-10-06T19:46:15.650Z,85.59
2023-10-06T19:48:54.511Z,85.49
2023-10-06T19:51:22.526Z,85.04
2023-10-06T19:53:49.584Z,84.85
2023-10-06T19:56:16.603Z,84.96
2023-10-06T19:58:44.288Z,85.34
2023-10-06T20:01:11.371Z,85.78
2023-10-06T20:03:44.264Z,85.75
2023-10-06T20:06:12.031Z,86.19
2023-10-06T20:08:39.051Z,85.90
2023-10-06T20:11:06.124Z,86.38
2023-10-06T20:13:34.759Z,85.97
2023-10-06T20:16:17.645Z,86.06
2023-10-06T20:18:44.743Z,86.63
2023-10-06T20:21:14.667Z,86.20
2023-10-06T20:23:42.046Z,86.12
2023-10-06T20:26:09.045Z,86.29
2023-10-06T20:28:36.078Z,86.80
2023-10-06T20:31:05.600Z,85.89
2023-10-06T20:33:32.834Z,86.33
2023-10-06T20:36:02.612Z,85.75
2023-10-06T20:38:32.591Z,85.76
2023-10-06T20:40:59.973Z,85.42
2023-10-06T20:43:27.008Z,85.87
2023-10-06T20:45:53.984Z,85.58
2023-10-06T20:48:22.154Z,85.45
2023-10-06T20:50:49.304Z,84.69
2023-10-06T20:53:17.517Z,84.79
2023-10-06T20:55:44.595Z,84.93
2023-10-06T20:58:12.452Z,85.05
2023-10-06T21:00:40.432Z,85.60
2023-10-06T21:03:07.666Z,85.49
2023-10-06T21:05:36.578Z,85.87
2023-10-06T21:08:05.154Z,84.85
2023-10-06T21:10:33.783Z,84.83
2023-10-06T21:13:01.415Z,85.54
2023-10-06T21:15:28.388Z,84.85
2023-10-06T21:17:56.228Z,84.32
2023-10-06T21:20:23.627Z,84.97
2023-10-06T21:22:51.524Z,85.60
2023-10-06T21:25:18.975Z,85.11
2023-10-06T21:27:47.049Z,84.52
2023-10-06T21:30:17.613Z,85.12
2023-10-06T21:32:46.010Z,85.09
2023-10-06T21:35:16.602Z,84.37
2023-10-06T21:37:43.919Z,84.81
2023-10-06T21:40:13.226Z,85.56
2023-10-06T21:42:41.625Z,86.21
2023-10-06T21:45:10.245Z,86.41
2023-10-06T21:47:37.452Z,86.29
2023-10-06T21:50:04.931Z,85.72
2023-10-06T21:52:32.615Z,85.57
2023-10-06T21:55:00.061Z,84.79
2023-10-06T21:57:31.989Z,84.91
2023-10-06T21:59:59.115Z,85.00
2023-10-06T22:02:26.263Z,84.20
2023-10-06T22:04:54.222Z,84.92
2023-10-06T22:07:21.223Z,85.53
2023-10-06T22:09:48.221Z,85.63
2023-10-06T22:12:16.706Z,85.85
2023-10-06T22:14:44.019Z,85.59
2023-10-06T22:17:14.035Z,85.93
2023-10-06T22:19:42.301Z,85.65
2023-10-06T22:22:09.458Z,85.64
2023-10-06T22:24:36.466Z,85.84
2023-10-06T22:27:08.363Z,86.38
2023-10-06T22:29:35.940Z,86.28
2023-10-06T22:32:05.418Z,86.67
2023-10-06T22:34:33.431Z,87.03
2023-10-06T22:37:05.259Z,87.51
2023-10-06T22:39:36.432Z,87.56
2023-10-06T22:42:05.152Z,87.19
2023-10-06T22:44:32.372Z,86.80
2023-10-06T22:46:59.429Z,87.08
2023-10-06T22:49:26.577Z,87.32
2023-10-06T22:51:54.811Z,87.17
2023-10-06T22:54:21.816Z,87.36
2023-10-06T22:56:48.797Z,87.98
2023-10-06T22:59:15.856Z,87.78
2023-10-06T23:01:43.074Z,88.08
2023-10-06T23:04:10.440Z,88.86
2023-10-06T23:06:38.976Z,88.97
2023-10-06T23:09:06.002Z,88.54
2023-10-06T23:11:32.984Z,88.80
2023-10-06T23:14:00.045Z,88.89
2023-10-06T23:16:27.684Z,89.17
2023-10-06T23:18:56.778Z,88.66
2023-10-06T23:21:25.958Z,88.33
2023-10-06T23:23:54.572Z,88.47
2023-10-06T23:26:21.530Z,88.99
2023-10-06T23:28:48.517Z,89.52
2023-10-06T23:31:16.456Z,90.14
2023-10-06T23:33:43.482Z,90.10
2023-10-06T23:36:10.465Z,89.92
2023-10-06T23:38:37.812Z,89.41
2023-10-06T23:41:09.827Z,89.31
2023-10-06T23:43:36.796Z,89.21
2023-10-06T23:46:06.802Z,90.28
2023-10-06T23:48:33.830Z,90.62
2023-10-06T23:51:10.488Z,90.74
2023-10-06T23:53:38.316Z,91.45
2023-10-06T23:56:20.887Z,91.26
2023-10-06T23:58:48.000Z,90.93
